sensor_id;sensor_type;location;lat;lon;timestamp;pressure;altitude;pressure_sealevel;temperature
29701;BMP280;57917;51.380;-0.176;2022-11-20T00:18:50;100853.72;;;7.38
29701;BMP280;57917;51.380;-0.176;2022-11-20T00:32:19;100831.22;;;7.52
29701;BMP280;57917;51.380;-0.176;2022-11-20T00:44:47;100812.94;;;7.68
29701;BMP280;57917;51.380;-0.176;2022-11-20T00:50:33;100815.78;;;7.88
29701;BMP280;57917;51.380;-0.176;2022-11-20T00:56:21;100801.94;;;7.76
29701;BMP280;57917;51.380;-0.176;2022-11-20T01:02:08;100799.31;;;7.76
29701;BMP280;57917;51.380;-0.176;2022-11-20T01:07:54;100791.00;;;7.89
29701;BMP280;57917;51.380;-0.176;2022-11-20T01:13:42;100787.19;;;7.75
29701;BMP280;57917;51.380;-0.176;2022-11-20T01:19:30;100782.53;;;7.87
29701;BMP280;57917;51.380;-0.176;2022-11-20T01:25:17;100775.22;;;7.94
29701;BMP280;57917;51.380;-0.176;2022-11-20T01:31:27;100770.56;;;8.06
29701;BMP280;57917;51.380;-0.176;2022-11-20T01:37:14;100745.34;;;8.20
29701;BMP280;57917;51.380;-0.176;2022-11-20T01:43:20;100734.84;;;8.25
29701;BMP280;57917;51.380;-0.176;2022-11-20T01:49:17;100731.06;;;8.11
29701;BMP280;57917;51.380;-0.176;2022-11-20T01:55:14;100728.34;;;8.01
29701;BMP280;57917;51.380;-0.176;2022-11-20T02:01:03;100727.09;;;8.08
29701;BMP280;57917;51.380;-0.176;2022-11-20T02:06:57;100712.69;;;8.21
29701;BMP280;57917;51.380;-0.176;2022-11-20T02:12:45;100700.47;;;8.15
29701;BMP280;57917;51.380;-0.176;2022-11-20T02:18:53;100688.59;;;8.02
29701;BMP280;57917;51.380;-0.176;2022-11-20T02:24:42;100670.19;;;8.12
29701;BMP280;57917;51.380;-0.176;2022-11-20T02:30:30;100649.63;;;8.19
29701;BMP280;57917;51.380;-0.176;2022-11-20T02:36:17;100639.91;;;8.30
29701;BMP280;57917;51.380;-0.176;2022-11-20T02:42:03;100624.81;;;8.15
29701;BMP280;57917;51.380;-0.176;2022-11-20T02:47:53;100619.91;;;8.34
29701;BMP280;57917;51.380;-0.176;2022-11-20T02:53:40;100606.19;;;8.32
29701;BMP280;57917;51.380;-0.176;2022-11-20T02:59:26;100604.84;;;8.34
29701;BMP280;57917;51.380;-0.176;2022-11-20T03:05:13;100611.97;;;8.24
29701;BMP280;57917;51.380;-0.176;2022-11-20T03:11:05;100621.88;;;8.02
29701;BMP280;57917;51.380;-0.176;2022-11-20T03:16:52;100616.63;;;8.02
29701;BMP280;57917;51.380;-0.176;2022-11-20T03:22:39;100607.16;;;8.11
29701;BMP280;57917;51.380;-0.176;2022-11-20T03:28:26;100620.59;;;8.14
29701;BMP280;57917;51.380;-0.176;2022-11-20T03:34:12;100618.19;;;8.03
29701;BMP280;57917;51.380;-0.176;2022-11-20T03:40:00;100619.25;;;8.02
29701;BMP280;57917;51.380;-0.176;2022-11-20T03:45:46;100610.84;;;8.10
29701;BMP280;57917;51.380;-0.176;2022-11-20T03:51:35;100604.25;;;8.17
29701;BMP280;57917;51.380;-0.176;2022-11-20T03:57:22;100596.16;;;8.29
29701;BMP280;57917;51.380;-0.176;2022-11-20T04:03:08;100584.25;;;8.21
29701;BMP280;57917;51.380;-0.176;2022-11-20T04:08:57;100580.34;;;8.29
29701;BMP280;57917;51.380;-0.176;2022-11-20T04:14:44;100589.59;;;8.31
29701;BMP280;57917;51.380;-0.176;2022-11-20T04:20:31;100580.34;;;8.39
29701;BMP280;57917;51.380;-0.176;2022-11-20T04:26:18;100567.94;;;8.34
29701;BMP280;57917;51.380;-0.176;2022-11-20T04:32:05;100569.81;;;8.49
29701;BMP280;57917;51.380;-0.176;2022-11-20T04:37:52;100545.03;;;8.55
29701;BMP280;57917;51.380;-0.176;2022-11-20T04:43:38;100548.22;;;8.52
29701;BMP280;57917;51.380;-0.176;2022-11-20T04:49:25;100548.47;;;8.50
29701;BMP280;57917;51.380;-0.176;2022-11-20T04:55:12;100535.53;;;8.49
29701;BMP280;57917;51.380;-0.176;2022-11-20T05:06:50;100515.75;;;8.51
29701;BMP280;57917;51.380;-0.176;2022-11-20T05:12:36;100520.78;;;8.68
29701;BMP280;57917;51.380;-0.176;2022-11-20T05:18:23;100500.19;;;8.75
29701;BMP280;57917;51.380;-0.176;2022-11-20T05:24:10;100489.91;;;8.79
29701;BMP280;57917;51.380;-0.176;2022-11-20T05:29:56;100469.59;;;8.79
29701;BMP280;57917;51.380;-0.176;2022-11-20T05:35:43;100462.22;;;8.81
29701;BMP280;57917;51.380;-0.176;2022-11-20T05:41:30;100465.34;;;8.88
29701;BMP280;57917;51.380;-0.176;2022-11-20T05:47:17;100450.03;;;8.95
29701;BMP280;57917;51.380;-0.176;2022-11-20T05:53:03;100449.53;;;8.93
29701;BMP280;57917;51.380;-0.176;2022-11-20T05:58:50;100446.06;;;8.98
29701;BMP280;57917;51.380;-0.176;2022-11-20T06:04:37;100437.59;;;9.11
29701;BMP280;57917;51.380;-0.176;2022-11-20T06:10:24;100429.94;;;9.09
29701;BMP280;57917;51.380;-0.176;2022-11-20T06:16:12;100411.19;;;9.21
29701;BMP280;57917;51.380;-0.176;2022-11-20T06:21:59;100397.91;;;9.26
29701;BMP280;57917;51.380;-0.176;2022-11-20T06:27:46;100379.56;;;8.86
29701;BMP280;57917;51.380;-0.176;2022-11-20T06:33:33;100389.88;;;8.82
29701;BMP280;57917;51.380;-0.176;2022-11-20T06:39:19;100378.78;;;8.85
29701;BMP280;57917;51.380;-0.176;2022-11-20T06:45:07;100363.72;;;8.96
29701;BMP280;57917;51.380;-0.176;2022-11-20T06:50:54;100348.41;;;8.93
29701;BMP280;57917;51.380;-0.176;2022-11-20T06:56:41;100336.78;;;8.94
29701;BMP280;57917;51.380;-0.176;2022-11-20T07:02:27;100326.44;;;9.07
29701;BMP280;57917;51.380;-0.176;2022-11-20T07:08:14;100327.50;;;9.11
29701;BMP280;57917;51.380;-0.176;2022-11-20T07:14:01;100315.31;;;9.15
29701;BMP280;57917;51.380;-0.176;2022-11-20T07:19:47;100345.41;;;9.19
29701;BMP280;57917;51.380;-0.176;2022-11-20T07:25:34;100403.13;;;8.47
29701;BMP280;57917;51.380;-0.176;2022-11-20T07:31:22;100382.25;;;8.55
29701;BMP280;57917;51.380;-0.176;2022-11-20T07:37:09;100384.56;;;8.97
29701;BMP280;57917;51.380;-0.176;2022-11-20T07:42:56;100381.06;;;9.17
29701;BMP280;57917;51.380;-0.176;2022-11-20T07:48:42;100383.63;;;9.37
29701;BMP280;57917;51.380;-0.176;2022-11-20T07:54:29;100376.72;;;9.41
29701;BMP280;57917;51.380;-0.176;2022-11-20T08:00:16;100386.50;;;9.45
29701;BMP280;57917;51.380;-0.176;2022-11-20T08:06:03;100386.41;;;9.60
29701;BMP280;57917;51.380;-0.176;2022-11-20T08:11:50;100391.34;;;9.67
29701;BMP280;57917;51.380;-0.176;2022-11-20T08:18:00;100407.00;;;9.63
29701;BMP280;57917;51.380;-0.176;2022-11-20T08:24:09;100412.91;;;9.45
29701;BMP280;57917;51.380;-0.176;2022-11-20T08:29:56;100439.72;;;9.67
29701;BMP280;57917;51.380;-0.176;2022-11-20T08:35:43;100445.59;;;9.64
29701;BMP280;57917;51.380;-0.176;2022-11-20T08:41:30;100456.97;;;9.60
29701;BMP280;57917;51.380;-0.176;2022-11-20T08:47:19;100445.81;;;9.68
29701;BMP280;57917;51.380;-0.176;2022-11-20T08:53:06;100456.44;;;9.58
29701;BMP280;57917;51.380;-0.176;2022-11-20T08:58:53;100467.72;;;9.73
29701;BMP280;57917;51.380;-0.176;2022-11-20T09:05:00;100478.31;;;9.68
29701;BMP280;57917;51.380;-0.176;2022-11-20T09:10:51;100482.53;;;9.69
29701;BMP280;57917;51.380;-0.176;2022-11-20T09:16:38;100459.78;;;9.78
29701;BMP280;57917;51.380;-0.176;2022-11-20T09:22:25;100470.00;;;9.90
29701;BMP280;57917;51.380;-0.176;2022-11-20T09:28:12;100465.97;;;10.02
29701;BMP280;57917;51.380;-0.176;2022-11-20T09:33:59;100467.13;;;9.91
29701;BMP280;57917;51.380;-0.176;2022-11-20T09:39:46;100497.69;;;10.08
29701;BMP280;57917;51.380;-0.176;2022-11-20T09:45:53;100489.59;;;10.28
29701;BMP280;57917;51.380;-0.176;2022-11-20T09:57:47;100481.94;;;10.31
29701;BMP280;57917;51.380;-0.176;2022-11-20T10:04:03;100450.13;;;10.36
29701;BMP280;57917;51.380;-0.176;2022-11-20T10:09:54;100467.72;;;10.56
29701;BMP280;57917;51.380;-0.176;2022-11-20T10:16:06;100469.22;;;10.62
29701;BMP280;57917;51.380;-0.176;2022-11-20T10:22:09;100466.41;;;11.05
29701;BMP280;57917;51.380;-0.176;2022-11-20T10:33:57;100448.97;;;11.47
29701;BMP280;57917;51.380;-0.176;2022-11-20T10:40:00;100436.50;;;11.47
29701;BMP280;57917;51.380;-0.176;2022-11-20T10:46:00;100454.97;;;11.52
29701;BMP280;57917;51.380;-0.176;2022-11-20T10:58:21;100430.19;;;11.43
29701;BMP280;57917;51.380;-0.176;2022-11-20T11:04:26;100440.94;;;11.33
29701;BMP280;57917;51.380;-0.176;2022-11-20T11:10:23;100435.19;;;11.26
29701;BMP280;57917;51.380;-0.176;2022-11-20T11:16:21;100436.25;;;11.25
29701;BMP280;57917;51.380;-0.176;2022-11-20T11:22:16;100434.78;;;11.56
29701;BMP280;57917;51.380;-0.176;2022-11-20T11:34:11;100422.31;;;11.57
29701;BMP280;57917;51.380;-0.176;2022-11-20T11:39:59;100421.78;;;11.73
29701;BMP280;57917;51.380;-0.176;2022-11-20T11:52:21;100389.59;;;11.98
29701;BMP280;57917;51.380;-0.176;2022-11-20T11:58:47;100392.84;;;11.95
29701;BMP280;57917;51.380;-0.176;2022-11-20T12:04:46;100395.06;;;11.88
29701;BMP280;57917;51.380;-0.176;2022-11-20T12:10:44;100385.63;;;11.82
29701;BMP280;57917;51.380;-0.176;2022-11-20T12:16:36;100398.38;;;11.80
29701;BMP280;57917;51.380;-0.176;2022-11-20T12:22:45;100385.03;;;11.67
29701;BMP280;57917;51.380;-0.176;2022-11-20T12:28:41;100384.34;;;11.61
29701;BMP280;57917;51.380;-0.176;2022-11-20T12:34:52;100378.72;;;11.81
29701;BMP280;57917;51.380;-0.176;2022-11-20T12:52:38;100378.31;;;11.74
29701;BMP280;57917;51.380;-0.176;2022-11-20T13:04:48;100387.69;;;11.67
29701;BMP280;57917;51.380;-0.176;2022-11-20T13:10:44;100395.38;;;11.50
29701;BMP280;57917;51.380;-0.176;2022-11-20T13:17:05;100386.34;;;11.51
29701;BMP280;57917;51.380;-0.176;2022-11-20T13:22:57;100393.38;;;11.60
29701;BMP280;57917;51.380;-0.176;2022-11-20T13:28:47;100408.84;;;11.53
29701;BMP280;57917;51.380;-0.176;2022-11-20T13:34:35;100417.03;;;11.57
29701;BMP280;57917;51.380;-0.176;2022-11-20T13:40:22;100420.00;;;11.50
29701;BMP280;57917;51.380;-0.176;2022-11-20T13:46:10;100412.13;;;11.82
29701;BMP280;57917;51.380;-0.176;2022-11-20T13:52:20;100410.00;;;11.47
29701;BMP280;57917;51.380;-0.176;2022-11-20T14:04:33;100381.53;;;11.53
29701;BMP280;57917;51.380;-0.176;2022-11-20T14:10:28;100380.56;;;11.49
29701;BMP280;57917;51.380;-0.176;2022-11-20T14:16:21;100358.41;;;11.40
29701;BMP280;57917;51.380;-0.176;2022-11-20T14:22:10;100340.75;;;11.35
29701;BMP280;57917;51.380;-0.176;2022-11-20T14:28:03;100347.38;;;11.51
29701;BMP280;57917;51.380;-0.176;2022-11-20T14:33:52;100365.28;;;11.59
29701;BMP280;57917;51.380;-0.176;2022-11-20T14:39:51;100371.78;;;11.67
29701;BMP280;57917;51.380;-0.176;2022-11-20T14:45:38;100394.66;;;11.63
29701;BMP280;57917;51.380;-0.176;2022-11-20T14:51:37;100405.84;;;11.41
29701;BMP280;57917;51.380;-0.176;2022-11-20T14:57:35;100395.09;;;11.51
29701;BMP280;57917;51.380;-0.176;2022-11-20T15:03:22;100379.88;;;11.75
29701;BMP280;57917;51.380;-0.176;2022-11-20T15:09:16;100382.28;;;11.77
29701;BMP280;57917;51.380;-0.176;2022-11-20T15:15:03;100389.09;;;11.46
29701;BMP280;57917;51.380;-0.176;2022-11-20T15:20:52;100377.59;;;11.31
29701;BMP280;57917;51.380;-0.176;2022-11-20T15:26:41;100386.47;;;11.22
29701;BMP280;57917;51.380;-0.176;2022-11-20T15:32:28;100395.41;;;11.07
29701;BMP280;57917;51.380;-0.176;2022-11-20T15:38:15;100393.75;;;11.35
29701;BMP280;57917;51.380;-0.176;2022-11-20T15:44:04;100389.78;;;11.51
29701;BMP280;57917;51.380;-0.176;2022-11-20T15:49:51;100400.56;;;11.17
29701;BMP280;57917;51.380;-0.176;2022-11-20T15:55:38;100403.59;;;11.29
29701;BMP280;57917;51.380;-0.176;2022-11-20T16:01:25;100406.41;;;11.38
29701;BMP280;57917;51.380;-0.176;2022-11-20T16:07:12;100400.56;;;11.17
29701;BMP280;57917;51.380;-0.176;2022-11-20T16:13:00;100396.88;;;10.95
29701;BMP280;57917;51.380;-0.176;2022-11-20T16:19:06;100405.97;;;10.89
29701;BMP280;57917;51.380;-0.176;2022-11-20T16:24:52;100413.09;;;10.88
29701;BMP280;57917;51.380;-0.176;2022-11-20T16:30:39;100415.59;;;10.80
29701;BMP280;57917;51.380;-0.176;2022-11-20T16:36:27;100415.63;;;10.75
29701;BMP280;57917;51.380;-0.176;2022-11-20T16:42:14;100413.78;;;10.47
29701;BMP280;57917;51.380;-0.176;2022-11-20T16:48:01;100417.16;;;10.52
29701;BMP280;57917;51.380;-0.176;2022-11-20T16:53:48;100430.56;;;10.61
29701;BMP280;57917;51.380;-0.176;2022-11-20T16:59:36;100431.06;;;10.34
29701;BMP280;57917;51.380;-0.176;2022-11-20T17:05:23;100448.75;;;10.44
29701;BMP280;57917;51.380;-0.176;2022-11-20T17:11:12;100447.47;;;10.36
29701;BMP280;57917;51.380;-0.176;2022-11-20T17:16:59;100451.72;;;10.37
29701;BMP280;57917;51.380;-0.176;2022-11-20T17:22:46;100453.03;;;10.35
29701;BMP280;57917;51.380;-0.176;2022-11-20T17:28:34;100453.63;;;10.27
29701;BMP280;57917;51.380;-0.176;2022-11-20T17:34:26;100472.56;;;10.05
29701;BMP280;57917;51.380;-0.176;2022-11-20T17:40:16;100479.81;;;9.84
29701;BMP280;57917;51.380;-0.176;2022-11-20T17:46:41;100491.00;;;9.71
29701;BMP280;57917;51.380;-0.176;2022-11-20T17:53:37;100502.72;;;9.40
29701;BMP280;57917;51.380;-0.176;2022-11-20T17:59:41;100517.53;;;9.41
29701;BMP280;57917;51.380;-0.176;2022-11-20T18:05:31;100522.84;;;9.21
29701;BMP280;57917;51.380;-0.176;2022-11-20T18:11:35;100529.69;;;9.32
29701;BMP280;57917;51.380;-0.176;2022-11-20T18:17:50;100524.19;;;9.14
29701;BMP280;57917;51.380;-0.176;2022-11-20T18:24:04;100527.88;;;9.23
29701;BMP280;57917;51.380;-0.176;2022-11-20T18:30:19;100534.22;;;9.07
29701;BMP280;57917;51.380;-0.176;2022-11-20T18:36:35;100534.00;;;8.83
29701;BMP280;57917;51.380;-0.176;2022-11-20T18:42:57;100551.38;;;8.94
29701;BMP280;57917;51.380;-0.176;2022-11-20T18:49:13;100544.53;;;9.08
29701;BMP280;57917;51.380;-0.176;2022-11-20T19:18:08;100540.81;;;8.74
29701;BMP280;57917;51.380;-0.176;2022-11-20T19:23:57;100536.09;;;8.71
29701;BMP280;57917;51.380;-0.176;2022-11-20T19:30:05;100555.09;;;8.78
29701;BMP280;57917;51.380;-0.176;2022-11-20T19:35:53;100553.69;;;8.30
29701;BMP280;57917;51.380;-0.176;2022-11-20T19:41:44;100557.91;;;8.26
29701;BMP280;57917;51.380;-0.176;2022-11-20T19:47:33;100558.72;;;8.37
29701;BMP280;57917;51.380;-0.176;2022-11-20T19:53:41;100570.31;;;8.36
29701;BMP280;57917;51.380;-0.176;2022-11-20T20:06:42;100584.47;;;8.10
29701;BMP280;57917;51.380;-0.176;2022-11-20T20:12:29;100587.41;;;8.18
29701;BMP280;57917;51.380;-0.176;2022-11-20T20:18:16;100591.63;;;8.19
29701;BMP280;57917;51.380;-0.176;2022-11-20T20:24:04;100597.16;;;8.18
29701;BMP280;57917;51.380;-0.176;2022-11-20T20:29:51;100600.84;;;8.17
29701;BMP280;57917;51.380;-0.176;2022-11-20T20:35:54;100613.47;;;8.10
29701;BMP280;57917;51.380;-0.176;2022-11-20T20:41:57;100622.63;;;7.92
29701;BMP280;57917;51.380;-0.176;2022-11-20T20:47:45;100627.97;;;8.02
29701;BMP280;57917;51.380;-0.176;2022-11-20T20:53:34;100643.50;;;8.04
29701;BMP280;57917;51.380;-0.176;2022-11-20T20:59:23;100628.75;;;8.03
29701;BMP280;57917;51.380;-0.176;2022-11-20T21:05:13;100657.38;;;7.94
29701;BMP280;57917;51.380;-0.176;2022-11-20T21:11:03;100650.19;;;7.75
29701;BMP280;57917;51.380;-0.176;2022-11-20T21:16:53;100658.97;;;7.53
29701;BMP280;57917;51.380;-0.176;2022-11-20T21:22:40;100662.28;;;7.71
29701;BMP280;57917;51.380;-0.176;2022-11-20T21:28:29;100658.41;;;7.46
29701;BMP280;57917;51.380;-0.176;2022-11-20T21:34:23;100627.94;;;7.61
29701;BMP280;57917;51.380;-0.176;2022-11-20T21:40:10;100612.97;;;7.66
29701;BMP280;57917;51.380;-0.176;2022-11-20T21:46:06;100612.91;;;7.56
29701;BMP280;57917;51.380;-0.176;2022-11-20T21:51:53;100595.44;;;7.45
29701;BMP280;57917;51.380;-0.176;2022-11-20T21:57:40;100591.97;;;7.39
29701;BMP280;57917;51.380;-0.176;2022-11-20T22:03:27;100582.00;;;7.41
29701;BMP280;57917;51.380;-0.176;2022-11-20T22:09:15;100591.97;;;7.39
29701;BMP280;57917;51.380;-0.176;2022-11-20T22:15:08;100589.25;;;7.24
29701;BMP280;57917;51.380;-0.176;2022-11-20T22:20:55;100580.38;;;7.35
29701;BMP280;57917;51.380;-0.176;2022-11-20T22:26:49;100571.78;;;7.50
29701;BMP280;57917;51.380;-0.176;2022-11-20T22:32:53;100562.28;;;7.44
29701;BMP280;57917;51.380;-0.176;2022-11-20T22:38:50;100555.34;;;7.38
29701;BMP280;57917;51.380;-0.176;2022-11-20T22:44:48;100546.25;;;7.55
29701;BMP280;57917;51.380;-0.176;2022-11-20T22:50:44;100536.53;;;7.61
29701;BMP280;57917;51.380;-0.176;2022-11-20T22:56:58;100543.19;;;7.69
29701;BMP280;57917;51.380;-0.176;2022-11-20T23:02:55;100533.59;;;7.52
29701;BMP280;57917;51.380;-0.176;2022-11-20T23:08:45;100558.94;;;7.59
29701;BMP280;57917;51.380;-0.176;2022-11-20T23:14:35;100556.31;;;7.64
29701;BMP280;57917;51.380;-0.176;2022-11-20T23:20:22;100562.16;;;7.71
29701;BMP280;57917;51.380;-0.176;2022-11-20T23:26:11;100554.50;;;7.69
29701;BMP280;57917;51.380;-0.176;2022-11-20T23:32:01;100567.88;;;7.57
29701;BMP280;57917;51.380;-0.176;2022-11-20T23:37:49;100548.50;;;7.79
29701;BMP280;57917;51.380;-0.176;2022-11-20T23:43:37;100533.22;;;7.81
29701;BMP280;57917;51.380;-0.176;2022-11-20T23:49:24;100507.91;;;7.80
29701;BMP280;57917;51.380;-0.176;2022-11-20T23:55:12;100499.69;;;7.71
